createdAt,value
2023-04-22T00:00:40.252Z,24.09
2023-04-22T00:01:40.269Z,24.08
2023-04-22T00:02:40.393Z,24.08
2023-04-22T00:03:40.441Z,24.07
2023-04-22T00:04:40.387Z,24.07
2023-04-22T00:05:40.273Z,24.06
2023-04-22T00:06:40.241Z,24.06
2023-04-22T00:07:40.243Z,24.05
2023-04-22T00:08:40.271Z,24.05
2023-04-22T00:09:40.508Z,24.04
2023-04-22T00:10:40.258Z,24.04
2023-04-22T00:11:40.241Z,24.04
2023-04-22T00:12:40.250Z,24.03
2023-04-22T00:13:40.279Z,24.04
2023-04-22T00:14:40.264Z,24.02
2023-04-22T00:15:40.306Z,24.03
2023-04-22T00:16:40.487Z,24.02
2023-04-22T00:17:40.334Z,24.02
2023-04-22T00:18:40.291Z,24.02
2023-04-22T00:19:40.611Z,24.02
2023-04-22T00:20:40.261Z,24.02
2023-04-22T00:21:40.255Z,24.01
2023-04-22T00:22:40.270Z,24.01
2023-04-22T00:23:40.278Z,24.00
2023-04-22T00:24:40.285Z,24.00
2023-04-22T00:25:40.303Z,23.99
2023-04-22T00:26:40.320Z,23.99
2023-04-22T00:27:40.315Z,23.99
2023-04-22T00:28:40.318Z,23.98
2023-04-22T00:29:40.608Z,23.99
2023-04-22T00:30:40.322Z,23.98
2023-04-22T00:31:40.366Z,23.98
2023-04-22T00:32:40.391Z,23.97
2023-04-22T00:33:40.360Z,23.97
2023-04-22T00:34:40.366Z,23.97
2023-04-22T00:35:40.368Z,23.96
2023-04-22T00:36:40.373Z,23.97
2023-04-22T00:37:40.414Z,23.96
2023-04-22T00:38:40.415Z,23.96
2023-04-22T00:39:40.696Z,23.94
2023-04-22T00:40:40.449Z,23.93
2023-04-22T00:41:40.446Z,23.92
2023-04-22T00:42:40.466Z,23.93
2023-04-22T00:43:40.489Z,23.93
2023-04-22T00:44:40.455Z,23.93
2023-04-22T00:45:40.505Z,23.93
2023-04-22T00:46:40.528Z,23.93
2023-04-22T00:47:40.560Z,23.93
2023-04-22T00:48:40.536Z,23.92
2023-04-22T00:49:40.699Z,23.93
2023-04-22T00:50:40.579Z,23.93
2023-04-22T00:51:40.568Z,23.91
2023-04-22T00:52:40.601Z,23.91
2023-04-22T00:53:40.595Z,23.91
2023-04-22T00:54:40.579Z,23.92
2023-04-22T00:55:40.609Z,23.91
2023-04-22T00:56:40.639Z,23.90
2023-04-22T00:57:40.647Z,23.90
2023-04-22T00:58:40.644Z,23.90
2023-04-22T00:59:41.010Z,23.90
2023-04-22T01:00:40.743Z,23.90
2023-04-22T01:01:40.678Z,23.90
2023-04-22T01:02:40.878Z,23.90
2023-04-22T01:03:41.066Z,23.90
2023-04-22T01:04:40.723Z,23.90
2023-04-22T01:05:40.755Z,23.89
2023-04-22T01:06:40.794Z,23.89
2023-04-22T01:07:40.771Z,23.88
2023-04-22T01:08:40.780Z,23.88
2023-04-22T01:09:40.927Z,23.87
2023-04-22T01:10:40.821Z,23.88
2023-04-22T01:11:40.790Z,23.87
2023-04-22T01:12:40.796Z,23.88
2023-04-22T01:13:40.806Z,23.87
2023-04-22T01:14:40.829Z,23.87
2023-04-22T01:15:40.865Z,23.87
2023-04-22T01:16:40.944Z,23.87
2023-04-22T01:17:40.936Z,23.86
2023-04-22T01:18:40.923Z,23.87
2023-04-22T01:19:41.267Z,23.86
2023-04-22T01:20:40.932Z,23.85
2023-04-22T01:21:40.977Z,23.86
2023-04-22T01:22:40.959Z,23.85
2023-04-22T01:23:40.975Z,23.85
2023-04-22T01:24:40.967Z,23.85
2023-04-22T01:25:41.043Z,23.85
2023-04-22T01:26:41.033Z,23.84
2023-04-22T01:27:41.073Z,23.84
2023-04-22T01:28:41.072Z,23.84
2023-04-22T01:29:41.286Z,23.84
2023-04-22T01:30:41.081Z,23.84
2023-04-22T01:31:41.180Z,23.84
2023-04-22T01:32:41.272Z,23.83
2023-04-22T01:33:41.131Z,23.83
2023-04-22T01:34:41.145Z,23.83
2023-04-22T01:35:41.167Z,23.83
2023-04-22T01:36:41.169Z,23.82
2023-04-22T01:37:41.214Z,23.82
2023-04-22T01:38:41.231Z,23.81
2023-04-22T01:39:41.500Z,23.81
2023-04-22T01:40:41.277Z,23.81
2023-04-22T01:41:41.273Z,23.80
2023-04-22T01:42:41.282Z,23.80
2023-04-22T01:43:41.301Z,23.79
2023-04-22T01:44:41.297Z,23.80
2023-04-22T01:45:41.409Z,23.79
2023-04-22T01:46:41.340Z,23.79
2023-04-22T01:47:41.533Z,23.79
2023-04-22T01:48:41.410Z,23.79
2023-04-22T01:49:41.856Z,23.78
2023-04-22T01:50:41.464Z,23.78
2023-04-22T01:51:41.462Z,23.77
2023-04-22T01:52:41.472Z,23.77
2023-04-22T01:53:41.484Z,23.78
2023-04-22T01:54:41.522Z,23.78
2023-04-22T01:55:41.549Z,23.78
2023-04-22T01:56:41.546Z,23.78
2023-04-22T01:57:41.565Z,23.77
2023-04-22T01:58:41.622Z,23.77
2023-04-22T01:59:42.017Z,23.76
2023-04-22T02:00:41.620Z,23.75
2023-04-22T02:01:41.723Z,23.75
2023-04-22T02:02:41.758Z,23.75
2023-04-22T02:03:41.841Z,23.75
2023-04-22T02:04:41.777Z,23.74
2023-04-22T02:05:41.758Z,23.75
2023-04-22T02:06:41.757Z,23.73
2023-04-22T02:07:41.796Z,23.73
2023-04-22T02:08:41.793Z,23.73
2023-04-22T02:09:42.189Z,23.73
2023-04-22T02:10:41.828Z,23.72
2023-04-22T02:11:41.855Z,23.71
2023-04-22T02:12:41.882Z,23.70
2023-04-22T02:13:41.925Z,23.69
2023-04-22T02:14:41.940Z,23.69
2023-04-22T02:15:42.028Z,23.69
2023-04-22T02:16:41.985Z,23.69
2023-04-22T02:17:42.025Z,23.69
2023-04-22T02:18:42.035Z,23.70
2023-04-22T02:19:42.357Z,23.70
2023-04-22T02:20:42.075Z,23.70
2023-04-22T02:21:42.117Z,23.69
2023-04-22T02:22:42.104Z,23.69
2023-04-22T02:23:42.155Z,23.69
2023-04-22T02:24:42.168Z,23.70
2023-04-22T02:25:42.211Z,23.70
2023-04-22T02:26:42.226Z,23.69
2023-04-22T02:27:42.274Z,23.68
2023-04-22T02:28:42.294Z,23.68
2023-04-22T02:29:42.471Z,23.67
2023-04-22T02:30:42.326Z,23.66
2023-04-22T02:31:42.439Z,23.65
2023-04-22T02:32:42.507Z,23.66
2023-04-22T02:33:42.448Z,23.64
2023-04-22T02:34:42.465Z,23.63
2023-04-22T02:35:42.516Z,23.63
2023-04-22T02:36:42.545Z,23.62
2023-04-22T02:37:42.593Z,23.62
2023-04-22T02:38:42.641Z,23.62
2023-04-22T02:39:42.856Z,23.61
2023-04-22T02:40:42.701Z,23.60
2023-04-22T02:41:42.745Z,23.60
2023-04-22T02:42:42.751Z,23.61
2023-04-22T02:43:42.826Z,23.59
2023-04-22T02:44:42.820Z,23.59
2023-04-22T02:45:42.878Z,23.59
2023-04-22T02:46:42.955Z,23.58
2023-04-22T02:47:43.012Z,23.59
2023-04-22T02:48:42.948Z,23.59
2023-04-22T02:49:43.207Z,23.59
2023-04-22T02:50:43.052Z,23.57
2023-04-22T02:51:43.115Z,23.57
2023-04-22T02:52:43.143Z,23.56
2023-04-22T02:53:43.214Z,23.55
2023-04-22T02:54:43.254Z,23.54
2023-04-22T02:55:43.270Z,23.54
2023-04-22T02:56:43.304Z,23.54
2023-04-22T02:57:43.355Z,23.53
2023-04-22T02:58:43.408Z,23.53
2023-04-22T02:59:43.432Z,23.54
2023-04-22T03:00:43.576Z,23.55
2023-04-22T03:01:43.559Z,23.55
2023-04-22T03:02:43.688Z,23.55
2023-04-22T03:03:43.941Z,23.54
2023-04-22T03:04:43.680Z,23.54
2023-04-22T03:05:43.748Z,23.53
2023-04-22T03:06:43.739Z,23.54
2023-04-22T03:07:43.816Z,23.54
2023-04-22T03:08:43.840Z,23.54
2023-04-22T03:09:43.921Z,23.54
2023-04-22T03:10:43.957Z,23.54
2023-04-22T03:11:43.984Z,23.53
2023-04-22T03:12:44.006Z,23.53
2023-04-22T03:13:44.070Z,23.54
2023-04-22T03:14:44.081Z,23.53
2023-04-22T03:15:44.166Z,23.53
2023-04-22T03:16:44.213Z,23.52
2023-04-22T03:17:44.250Z,23.53
2023-04-22T03:18:44.250Z,23.52
2023-04-22T03:19:44.305Z,23.50
2023-04-22T03:20:44.342Z,23.49
2023-04-22T03:21:44.379Z,23.48
2023-04-22T03:22:44.441Z,23.48
2023-04-22T03:23:44.477Z,23.48
2023-04-22T03:24:44.502Z,23.48
2023-04-22T03:25:44.559Z,23.48
2023-04-22T03:26:44.608Z,23.48
2023-04-22T03:27:44.672Z,23.47
2023-04-22T03:28:44.734Z,23.48
2023-04-22T03:29:44.744Z,23.47
2023-04-22T03:30:44.810Z,23.45
2023-04-22T03:31:44.922Z,23.44
2023-04-22T03:32:44.951Z,23.44
2023-04-22T03:33:44.920Z,23.42
2023-04-22T03:34:44.993Z,23.43
2023-04-22T03:35:45.039Z,23.41
2023-04-22T03:36:45.092Z,23.41
2023-04-22T03:37:45.141Z,23.40
2023-04-22T03:38:45.186Z,23.39
2023-04-22T03:39:45.282Z,23.39
2023-04-22T03:40:45.327Z,23.39
2023-04-22T03:41:45.409Z,23.38
2023-04-22T03:42:45.452Z,23.38
2023-04-22T03:43:45.512Z,23.37
2023-04-22T03:44:45.545Z,23.36
2023-04-22T03:45:45.688Z,23.36
2023-04-22T03:46:45.672Z,23.35
2023-04-22T03:47:45.745Z,23.35
2023-04-22T03:48:45.778Z,23.35
2023-04-22T03:49:45.831Z,23.34
2023-04-22T03:50:45.879Z,23.34
2023-04-22T03:51:45.934Z,23.35
2023-04-22T03:52:45.975Z,23.34
2023-04-22T03:53:46.050Z,23.35
2023-04-22T03:54:46.090Z,23.35
2023-04-22T03:55:46.186Z,23.35
2023-04-22T03:56:46.289Z,23.34
2023-04-22T03:57:46.283Z,23.35
2023-04-22T03:58:46.353Z,23.34
2023-04-22T03:59:46.441Z,23.34
2023-04-22T04:00:46.481Z,23.33
2023-04-22T04:01:46.521Z,23.33
2023-04-22T04:02:46.868Z,23.32
2023-04-22T04:03:46.923Z,23.32
2023-04-22T04:04:47.170Z,23.31
2023-04-22T04:05:46.831Z,23.30
2023-04-22T04:06:46.859Z,23.31
2023-04-22T04:07:46.906Z,23.32
2023-04-22T04:08:46.958Z,23.33
2023-04-22T04:09:47.016Z,23.33
2023-04-22T04:10:47.049Z,23.33
2023-04-22T04:11:47.112Z,23.34
2023-04-22T04:12:47.205Z,23.34
2023-04-22T04:13:47.276Z,23.34
2023-04-22T04:14:47.289Z,23.33
2023-04-22T04:15:47.435Z,23.34
2023-04-22T04:16:47.413Z,23.34
2023-04-22T04:17:47.495Z,23.34
2023-04-22T04:18:47.497Z,23.34
2023-04-22T04:19:47.578Z,23.34
2023-04-22T04:20:47.628Z,23.34
2023-04-22T04:21:47.703Z,23.33
2023-04-22T04:22:47.736Z,23.33
2023-04-22T04:23:47.776Z,23.33
2023-04-22T04:24:47.847Z,23.32
2023-04-22T04:25:47.942Z,23.32
2023-04-22T04:26:47.999Z,23.32
2023-04-22T04:27:48.054Z,23.32
2023-04-22T04:28:48.075Z,23.32
2023-04-22T04:29:48.137Z,23.32
2023-04-22T04:30:48.254Z,23.32
2023-04-22T04:31:48.395Z,23.33
2023-04-22T04:32:48.402Z,23.33
2023-04-22T04:33:48.361Z,23.33
2023-04-22T04:34:48.436Z,23.33
2023-04-22T04:35:48.466Z,23.33
2023-04-22T04:36:48.530Z,23.33
2023-04-22T04:37:48.589Z,23.33
2023-04-22T04:38:48.624Z,23.34
2023-04-22T04:39:48.688Z,23.34
2023-04-22T04:40:48.742Z,23.34
2023-04-22T04:41:48.792Z,23.35
2023-04-22T04:42:48.896Z,23.35
2023-04-22T04:43:48.912Z,23.35
2023-04-22T04:44:48.971Z,23.35
2023-04-22T04:45:49.140Z,23.35
2023-04-22T04:46:49.138Z,23.35
2023-04-22T04:47:49.200Z,23.34
2023-04-22T04:48:49.167Z,23.34
2023-04-22T04:49:49.244Z,23.33
2023-04-22T04:50:49.303Z,23.32
2023-04-22T04:51:49.335Z,23.32
2023-04-22T04:52:49.612Z,23.31
2023-04-22T04:53:49.454Z,23.31
2023-04-22T04:54:49.491Z,23.32
2023-04-22T04:55:49.572Z,23.33
2023-04-22T04:56:49.644Z,23.32
2023-04-22T04:57:49.695Z,23.33
2023-04-22T04:58:49.762Z,23.34
2023-04-22T04:59:49.813Z,23.34
2023-04-22T05:00:49.871Z,23.34
2023-04-22T05:01:49.951Z,23.35
2023-04-22T05:02:50.138Z,23.35
2023-04-22T05:03:50.200Z,23.35
2023-04-22T05:04:50.192Z,23.34
2023-04-22T05:05:50.163Z,23.34
2023-04-22T05:06:50.215Z,23.35
2023-04-22T05:07:50.279Z,23.36
2023-04-22T05:08:50.315Z,23.37
2023-04-22T05:09:50.413Z,23.37
2023-04-22T05:10:50.442Z,23.38
2023-04-22T05:11:51.063Z,23.37
2023-04-22T05:12:50.539Z,23.37
2023-04-22T05:13:50.598Z,23.37
2023-04-22T05:14:50.677Z,23.37
2023-04-22T05:15:50.745Z,23.37
2023-04-22T05:16:50.903Z,23.37
2023-04-22T05:17:50.832Z,23.36
2023-04-22T05:18:50.902Z,23.37
2023-04-22T05:19:50.941Z,23.38
2023-04-22T05:20:51.041Z,23.37
2023-04-22T05:21:51.094Z,23.38
2023-04-22T05:22:51.104Z,23.39
2023-04-22T05:23:51.216Z,23.39
2023-04-22T05:24:51.233Z,23.39
2023-04-22T05:25:53.286Z,23.39
2023-04-22T05:26:51.342Z,23.38
2023-04-22T05:27:51.402Z,23.39
2023-04-22T05:28:51.474Z,23.39
2023-04-22T05:29:51.548Z,23.39
2023-04-22T05:30:51.584Z,23.39
2023-04-22T05:31:51.697Z,23.39
2023-04-22T05:32:51.692Z,23.39
2023-04-22T05:33:51.778Z,23.40
2023-04-22T05:34:51.814Z,23.40
2023-04-22T05:35:51.859Z,23.40
2023-04-22T05:36:51.908Z,23.40
2023-04-22T05:37:51.989Z,23.40
2023-04-22T05:38:52.028Z,23.40
2023-04-22T05:39:52.067Z,23.40
2023-04-22T05:40:52.140Z,23.39
2023-04-22T05:41:52.193Z,23.40
2023-04-22T05:42:52.212Z,23.40
2023-04-22T05:43:52.292Z,23.41
2023-04-22T05:44:52.367Z,23.41
2023-04-22T05:45:52.437Z,23.41
2023-04-22T05:46:52.480Z,23.41
2023-04-22T05:47:52.533Z,23.41
2023-04-22T05:48:52.567Z,23.41
2023-04-22T05:49:52.644Z,23.40
2023-04-22T05:50:52.708Z,23.40
2023-04-22T05:51:52.738Z,23.40
2023-04-22T05:52:52.810Z,23.40
2023-04-22T05:53:52.850Z,23.40
2023-04-22T05:54:52.909Z,23.40
2023-04-22T05:55:52.968Z,23.41
2023-04-22T05:56:53.020Z,23.40
2023-04-22T05:57:53.073Z,23.40
2023-04-22T05:58:53.106Z,23.41
2023-04-22T05:59:53.174Z,23.41
2023-04-22T06:00:53.240Z,23.41
2023-04-22T06:01:53.311Z,23.42
2023-04-22T06:02:53.452Z,23.42
2023-04-22T06:03:53.559Z,23.42
2023-04-22T06:04:53.656Z,23.42
2023-04-22T06:05:53.540Z,23.42
2023-04-22T06:06:53.552Z,23.43
2023-04-22T06:07:53.598Z,23.43
2023-04-22T06:08:53.673Z,23.42
2023-04-22T06:10:02.141Z,23.43
2023-04-22T06:10:54.725Z,23.43
2023-04-22T06:11:53.697Z,23.44
2023-04-22T06:12:53.706Z,23.44
2023-04-22T06:13:53.702Z,23.44
2023-04-22T06:14:53.683Z,23.44
2023-04-22T06:15:53.683Z,23.44
2023-04-22T06:16:53.651Z,23.43
2023-04-22T06:17:53.699Z,23.44
2023-04-22T06:18:53.625Z,23.44
2023-04-22T06:19:53.721Z,23.44
2023-04-22T06:20:53.756Z,23.44
2023-04-22T06:21:53.762Z,23.43
2023-04-22T06:22:53.874Z,23.43
2023-04-22T06:23:53.880Z,23.44
2023-04-22T06:24:53.934Z,23.43
2023-04-22T06:25:53.985Z,23.43
2023-04-22T06:26:54.054Z,23.43
2023-04-22T06:27:54.113Z,23.44
2023-04-22T06:28:54.133Z,23.43
2023-04-22T06:29:54.216Z,23.43
2023-04-22T06:30:54.283Z,23.44
2023-04-22T06:31:54.335Z,23.44
2023-04-22T06:32:54.353Z,23.44
2023-04-22T06:33:54.414Z,23.44
2023-04-22T06:34:54.476Z,23.44
2023-04-22T06:35:54.532Z,23.44
2023-04-22T06:36:54.554Z,23.45
2023-04-22T06:37:54.619Z,23.45
2023-04-22T06:38:54.689Z,23.45
2023-04-22T06:39:54.759Z,23.46
2023-04-22T06:40:54.791Z,23.46
2023-04-22T06:41:54.847Z,23.46
2023-04-22T06:42:54.907Z,23.46
2023-04-22T06:43:54.969Z,23.46
2023-04-22T06:44:55.063Z,23.45
2023-04-22T06:45:55.051Z,23.47
2023-04-22T06:46:56.585Z,23.47
2023-04-22T06:47:55.118Z,23.46
2023-04-22T06:48:55.075Z,23.47
2023-04-22T06:49:55.068Z,23.47
2023-04-22T06:50:55.079Z,23.47
2023-04-22T06:51:55.061Z,23.47
2023-04-22T06:52:55.045Z,23.46
2023-04-22T06:53:55.052Z,23.47
2023-04-22T06:54:55.056Z,23.47
2023-04-22T06:55:55.052Z,23.47
2023-04-22T06:56:55.026Z,23.46
2023-04-22T06:57:55.017Z,23.47
2023-04-22T06:58:55.012Z,23.46
2023-04-22T06:59:55.010Z,23.46
2023-04-22T07:00:55.019Z,23.46
2023-04-22T07:01:55.036Z,23.47
2023-04-22T07:02:55.163Z,23.46
2023-04-22T07:03:55.010Z,23.47
2023-04-22T07:04:54.971Z,23.46
2023-04-22T07:05:54.971Z,23.46
2023-04-22T07:06:54.955Z,23.47
2023-04-22T07:07:54.913Z,23.47
2023-04-22T07:08:54.922Z,23.48
2023-04-22T07:09:54.952Z,23.48
2023-04-22T07:10:54.922Z,23.48
2023-04-22T07:11:54.917Z,23.48
2023-04-22T07:12:54.900Z,23.48
2023-04-22T07:13:54.883Z,23.47
2023-04-22T07:14:54.889Z,23.47
2023-04-22T07:15:54.924Z,23.48
2023-04-22T07:16:55.005Z,23.47
2023-04-22T07:17:54.932Z,23.46
2023-04-22T07:18:54.860Z,23.46
2023-04-22T07:19:54.865Z,23.46
2023-04-22T07:20:54.829Z,23.46
2023-04-22T07:21:54.842Z,23.45
2023-04-22T07:22:54.829Z,23.45
2023-04-22T07:23:54.806Z,23.46
2023-04-22T07:24:54.864Z,23.46
2023-04-22T07:25:54.815Z,23.46
2023-04-22T07:26:54.798Z,23.46
2023-04-22T07:27:54.791Z,23.45
2023-04-22T07:28:54.788Z,23.46
2023-04-22T07:29:54.804Z,23.47
2023-04-22T07:30:54.867Z,23.47
2023-04-22T07:31:54.925Z,23.47
2023-04-22T07:32:55.027Z,23.46
2023-04-22T07:33:55.046Z,23.46
2023-04-22T07:34:55.107Z,23.45
2023-04-22T07:35:55.132Z,23.46
2023-04-22T07:36:55.217Z,23.46
2023-04-22T07:37:55.232Z,23.45
2023-04-22T07:38:55.300Z,23.46
2023-04-22T07:39:55.347Z,23.46
2023-04-22T07:40:55.414Z,23.46
2023-04-22T07:41:55.451Z,23.46
2023-04-22T07:42:55.534Z,23.46
2023-04-22T07:43:55.563Z,23.46
2023-04-22T07:44:55.596Z,23.45
2023-04-22T07:45:55.726Z,23.46
2023-04-22T07:46:55.740Z,23.46
2023-04-22T07:47:55.812Z,23.46
2023-04-22T07:48:55.836Z,23.44
2023-04-22T07:49:55.934Z,23.45
2023-04-22T07:50:56.000Z,23.44
2023-04-22T07:51:56.033Z,23.44
2023-04-22T07:52:56.083Z,23.44
2023-04-22T07:53:56.119Z,23.44
2023-04-22T07:54:56.181Z,23.44
2023-04-22T07:55:56.243Z,23.44
2023-04-22T07:56:56.266Z,23.45
2023-04-22T07:57:56.327Z,23.44
2023-04-22T07:58:56.394Z,23.45
2023-04-22T07:59:56.465Z,23.45
2023-04-22T08:00:56.526Z,23.45
2023-04-22T08:01:56.588Z,23.45
2023-04-22T08:02:56.708Z,23.45
2023-04-22T08:03:56.907Z,23.45
2023-04-22T08:04:56.755Z,23.46
2023-04-22T08:05:56.832Z,23.45
2023-04-22T08:06:56.834Z,23.46
2023-04-22T08:07:56.913Z,23.46
2023-04-22T08:08:56.958Z,23.46
2023-04-22T08:09:57.017Z,23.47
2023-04-22T08:10:57.083Z,23.48
2023-04-22T08:11:57.113Z,23.48
2023-04-22T08:12:57.173Z,23.48
2023-04-22T08:13:57.243Z,23.48
2023-04-22T08:14:57.283Z,23.49
2023-04-22T08:15:57.345Z,23.49
2023-04-22T08:16:57.373Z,23.51
2023-04-22T08:17:57.451Z,23.50
2023-04-22T08:18:57.498Z,23.52
2023-04-22T08:19:57.549Z,23.52
2023-04-22T08:20:57.597Z,23.52
2023-04-22T08:21:57.647Z,23.51
2023-04-22T08:22:57.693Z,23.52
2023-04-22T08:23:57.735Z,23.52
2023-04-22T08:24:57.776Z,23.52
2023-04-22T08:25:57.824Z,23.53
2023-04-22T08:26:57.893Z,23.53
2023-04-22T08:27:57.924Z,23.54
2023-04-22T08:28:58.007Z,23.54
2023-04-22T08:29:58.029Z,23.54
2023-04-22T08:30:58.098Z,23.54
2023-04-22T08:31:58.140Z,23.55
2023-04-22T08:32:58.231Z,23.54
2023-04-22T08:33:58.200Z,23.56
2023-04-22T08:35:04.399Z,23.55
2023-04-22T08:35:59.281Z,23.55
2023-04-22T08:36:58.260Z,23.56
2023-04-22T08:37:58.240Z,23.56
2023-04-22T08:38:58.256Z,23.56
2023-04-22T08:39:58.236Z,23.57
2023-04-22T08:40:58.234Z,23.57
2023-04-22T08:41:58.236Z,23.58
2023-04-22T08:42:58.245Z,23.58
2023-04-22T08:43:59.166Z,23.59
2023-04-22T08:44:58.193Z,23.59
2023-04-22T08:45:58.215Z,23.59
2023-04-22T08:46:58.373Z,23.60
2023-04-22T08:47:58.288Z,23.60
2023-04-22T08:48:58.314Z,23.60
2023-04-22T08:49:58.392Z,23.61
2023-04-22T08:50:58.430Z,23.62
2023-04-22T08:51:58.448Z,23.62
2023-04-22T08:52:58.496Z,23.62
2023-04-22T08:53:58.523Z,23.62
2023-04-22T08:54:58.582Z,23.63
2023-04-22T08:55:58.654Z,23.64
2023-04-22T08:56:58.697Z,23.63
2023-04-22T08:57:58.710Z,23.64
2023-04-22T08:58:58.761Z,23.64
2023-04-22T08:59:58.807Z,23.65
2023-04-22T09:00:58.815Z,23.65
2023-04-22T09:01:58.911Z,23.65
2023-04-22T09:02:59.007Z,23.65
2023-04-22T09:03:59.095Z,23.66
2023-04-22T09:04:59.033Z,23.66
2023-04-22T09:05:59.046Z,23.66
2023-04-22T09:06:59.079Z,23.66
2023-04-22T09:07:59.139Z,23.66
2023-04-22T09:08:59.158Z,23.66
2023-04-22T09:09:59.246Z,23.66
2023-04-22T09:10:59.242Z,23.67
2023-04-22T09:11:59.289Z,23.67
2023-04-22T09:12:59.319Z,23.67
2023-04-22T09:13:59.372Z,23.66
2023-04-22T09:14:59.435Z,23.67
2023-04-22T09:16:00.168Z,23.67
2023-04-22T09:16:59.507Z,23.67
2023-04-22T09:17:59.557Z,23.67
2023-04-22T09:18:59.584Z,23.67
2023-04-22T09:19:59.620Z,23.67
2023-04-22T09:20:59.688Z,23.68
2023-04-22T09:21:59.699Z,23.68
2023-04-22T09:22:59.758Z,23.68
2023-04-22T09:23:59.777Z,23.68
2023-04-22T09:24:59.837Z,23.68
2023-04-22T09:25:59.892Z,23.68
2023-04-22T09:26:59.898Z,23.69
2023-04-22T09:27:59.947Z,23.69
2023-04-22T09:28:59.996Z,23.69
2023-04-22T09:30:00.037Z,23.68
2023-04-22T09:31:00.067Z,23.68
2023-04-22T09:32:00.174Z,23.69
2023-04-22T09:33:00.234Z,23.68
2023-04-22T09:34:00.186Z,23.69
2023-04-22T09:35:00.233Z,23.69
2023-04-22T09:36:00.282Z,23.69
2023-04-22T09:37:00.368Z,23.68
2023-04-22T09:38:00.355Z,23.68
2023-04-22T09:39:00.375Z,23.69
2023-04-22T09:40:00.381Z,23.69
2023-04-22T09:41:00.437Z,23.70
2023-04-22T09:42:00.583Z,23.70
2023-04-22T09:43:00.535Z,23.70
2023-04-22T09:44:00.524Z,23.70
2023-04-22T09:45:01.847Z,23.71
2023-04-22T09:46:00.673Z,23.71
2023-04-22T09:47:00.682Z,23.71
2023-04-22T09:48:00.752Z,23.71
2023-04-22T09:49:00.777Z,23.72
2023-04-22T09:50:00.746Z,23.72
2023-04-22T09:51:00.781Z,23.73
2023-04-22T09:52:00.818Z,23.72
2023-04-22T09:53:00.874Z,23.73
2023-04-22T09:54:00.945Z,23.73
2023-04-22T09:55:00.941Z,23.73
2023-04-22T09:56:00.976Z,23.73
2023-04-22T09:57:01.022Z,23.74
2023-04-22T09:58:01.059Z,23.74
2023-04-22T09:59:01.103Z,23.75
2023-04-22T10:00:01.087Z,23.75
2023-04-22T10:01:01.169Z,23.75
2023-04-22T10:02:01.161Z,23.75
2023-04-22T10:03:01.276Z,23.76
2023-04-22T10:04:01.288Z,23.76
2023-04-22T10:05:01.249Z,23.77
2023-04-22T10:06:01.290Z,23.77
2023-04-22T10:07:01.322Z,23.77
2023-04-22T10:08:01.405Z,23.78
2023-04-22T10:09:01.384Z,23.78
2023-04-22T10:10:01.460Z,23.78
2023-04-22T10:11:01.486Z,23.78
2023-04-22T10:12:01.551Z,23.78
2023-04-22T10:13:01.501Z,23.78
2023-04-22T10:14:01.540Z,23.78
2023-04-22T10:15:01.570Z,23.79
2023-04-22T10:16:01.586Z,23.79
2023-04-22T10:17:01.676Z,23.80
2023-04-22T10:18:01.737Z,23.80
2023-04-22T10:19:01.658Z,23.80
2023-04-22T10:20:01.686Z,23.81
2023-04-22T10:21:01.825Z,23.81
2023-04-22T10:22:01.717Z,23.81
2023-04-22T10:23:01.759Z,23.82
2023-04-22T10:24:01.763Z,23.82
2023-04-22T10:25:01.812Z,23.82
2023-04-22T10:26:01.844Z,23.81
2023-04-22T10:27:01.858Z,23.82
2023-04-22T10:28:01.855Z,23.83
2023-04-22T10:29:01.870Z,23.83
2023-04-22T10:30:01.914Z,23.83
2023-04-22T10:31:01.964Z,23.84
2023-04-22T10:32:01.945Z,23.84
2023-04-22T10:33:02.031Z,23.84
2023-04-22T10:34:01.990Z,23.85
2023-04-22T10:35:01.982Z,23.85
2023-04-22T10:36:02.027Z,23.85
2023-04-22T10:37:02.030Z,23.85
2023-04-22T10:38:02.075Z,23.86
2023-04-22T10:39:02.082Z,23.87
2023-04-22T10:40:02.120Z,23.87
2023-04-22T10:41:02.109Z,23.87
2023-04-22T10:42:02.119Z,23.87
2023-04-22T10:43:02.140Z,23.87
2023-04-22T10:44:02.127Z,23.88
2023-04-22T10:45:02.218Z,23.88
2023-04-22T10:46:02.209Z,23.88
2023-04-22T10:47:02.191Z,23.88
2023-04-22T10:48:02.247Z,23.89
2023-04-22T10:49:02.254Z,23.89
2023-04-22T10:50:02.281Z,23.88
2023-04-22T10:51:02.295Z,23.89
2023-04-22T10:52:02.337Z,23.88
2023-04-22T10:53:02.331Z,23.89
2023-04-22T10:54:02.446Z,23.89
2023-04-22T10:55:02.385Z,23.89
2023-04-22T10:56:02.406Z,23.89
2023-04-22T10:57:02.412Z,23.88
2023-04-22T10:58:02.436Z,23.90
2023-04-22T10:59:02.461Z,23.89
2023-04-22T11:00:02.485Z,23.89
2023-04-22T11:01:02.513Z,23.90
2023-04-22T11:02:02.487Z,23.90
2023-04-22T11:03:02.640Z,23.91
2023-04-22T11:04:02.583Z,23.91
2023-04-22T11:05:02.551Z,23.91
2023-04-22T11:06:02.608Z,23.91
2023-04-22T11:07:02.579Z,23.92
2023-04-22T11:08:02.619Z,23.92
2023-04-22T11:09:02.708Z,23.93
2023-04-22T11:10:02.677Z,23.92
2023-04-22T11:11:02.645Z,23.94
2023-04-22T11:12:02.697Z,23.94
2023-04-22T11:13:02.696Z,23.93
2023-04-22T11:14:02.721Z,23.94
2023-04-22T11:15:02.724Z,23.95
2023-04-22T11:16:02.829Z,23.95
2023-04-22T11:17:02.756Z,23.95
2023-04-22T11:18:02.785Z,23.96
2023-04-22T11:19:02.798Z,23.96
2023-04-22T11:20:02.814Z,23.97
2023-04-22T11:21:02.885Z,23.97
2023-04-22T11:22:02.844Z,23.98
2023-04-22T11:23:02.877Z,23.98
2023-04-22T11:24:02.889Z,23.99
2023-04-22T11:25:02.886Z,23.98
2023-04-22T11:26:02.955Z,24.00
2023-04-22T11:27:02.922Z,24.00
2023-04-22T11:28:02.923Z,24.01
2023-04-22T11:29:02.943Z,24.01
2023-04-22T11:30:02.980Z,24.01
2023-04-22T11:31:02.999Z,24.02
2023-04-22T11:32:02.989Z,24.03
2023-04-22T11:33:03.038Z,24.03
2023-04-22T11:34:03.003Z,24.03
2023-04-22T11:35:03.002Z,24.05
2023-04-22T11:36:03.034Z,24.04
2023-04-22T11:37:03.047Z,24.06
2023-04-22T11:38:03.038Z,24.06
2023-04-22T11:39:03.045Z,24.07
2023-04-22T11:40:21.632Z,24.07
2023-04-22T11:41:04.045Z,24.08
2023-04-22T11:42:03.062Z,24.09
2023-04-22T11:43:03.028Z,24.09
2023-04-22T11:44:03.038Z,24.09
2023-04-22T11:45:03.051Z,24.10
2023-04-22T11:46:03.111Z,24.11
2023-04-22T11:47:02.996Z,24.12
2023-04-22T11:48:02.998Z,24.13
2023-04-22T11:49:02.993Z,24.15
2023-04-22T11:50:02.960Z,24.14
2023-04-22T11:51:02.964Z,24.15
2023-04-22T11:52:02.978Z,24.16
2023-04-22T11:53:02.962Z,24.17
2023-04-22T11:54:02.925Z,24.17
2023-04-22T11:55:02.946Z,24.17
2023-04-22T11:56:02.926Z,24.18
2023-04-22T11:57:03.242Z,24.19
2023-04-22T11:58:02.917Z,24.19
2023-04-22T11:59:02.914Z,24.19
2023-04-22T12:00:02.882Z,24.20
2023-04-22T12:01:02.900Z,24.21
2023-04-22T12:02:02.922Z,24.22
2023-04-22T12:03:02.994Z,24.22
2023-04-22T12:04:02.996Z,24.23
2023-04-22T12:05:02.894Z,24.24
2023-04-22T12:06:02.903Z,24.24
2023-04-22T12:07:02.843Z,24.24
2023-04-22T12:08:02.848Z,24.25
2023-04-22T12:09:02.831Z,24.26
2023-04-22T12:10:02.826Z,24.27
2023-04-22T12:11:02.790Z,24.28
2023-04-22T12:12:02.814Z,24.28
2023-04-22T12:13:02.822Z,24.29
2023-04-22T12:14:02.824Z,24.30
2023-04-22T12:15:02.810Z,24.30
2023-04-22T12:16:02.768Z,24.32
2023-04-22T12:17:02.862Z,24.32
2023-04-22T12:18:02.770Z,24.34
2023-04-22T12:19:02.796Z,24.35
2023-04-22T12:20:02.757Z,24.36
2023-04-22T12:21:02.737Z,24.38
2023-04-22T12:22:02.732Z,24.39
2023-04-22T12:23:02.704Z,24.40
2023-04-22T12:24:02.718Z,24.43
2023-04-22T12:25:02.718Z,24.43
2023-04-22T12:26:02.700Z,24.44
2023-04-22T12:27:02.710Z,24.45
2023-04-22T12:28:02.711Z,24.47
2023-04-22T12:29:02.667Z,24.49
2023-04-22T12:30:02.671Z,24.51
2023-04-22T12:31:02.708Z,24.52
2023-04-22T12:32:02.687Z,24.54
2023-04-22T12:33:02.648Z,24.55
2023-04-22T12:34:02.705Z,24.57
2023-04-22T12:35:02.650Z,24.59
2023-04-22T12:36:02.643Z,24.60
2023-04-22T12:37:02.619Z,24.62
2023-04-22T12:38:02.620Z,24.64
2023-04-22T12:39:02.695Z,24.65
2023-04-22T12:40:02.645Z,24.67
2023-04-22T12:41:02.709Z,24.69
2023-04-22T12:42:02.770Z,24.71
2023-04-22T12:43:02.848Z,24.72
2023-04-22T12:44:02.899Z,24.74
2023-04-22T12:45:02.922Z,24.76
2023-04-22T12:46:03.058Z,24.78
2023-04-22T12:47:03.073Z,24.80
2023-04-22T12:48:03.140Z,24.82
2023-04-22T12:49:03.205Z,24.84
2023-04-22T12:50:03.245Z,24.86
2023-04-22T12:51:03.329Z,24.87
2023-04-22T12:52:03.385Z,24.89
2023-04-22T12:53:03.456Z,24.92